Time;durP1;ratioP1;P1;durP2;ratioP2;P2;SDS_P1;SDS_P2;PMS_P1;PMS_P2;Temp;Humidity;BMP_temperature;BMP_pressure;BME280_temperature;BME280_humidity;BME280_pressure;Samples;Min_cycle;Max_cycle;Signal;HPM_P1;HPM_P2
2023/07/18 00:00:25;;;;;;;2.60;2.23;;;21.10;84.30;;;;;;4928686;28;20567;-70
2023/07/18 00:02:51;;;;;;;10.70;2.70;;;21.00;84.30;;;;;;4927710;28;20875;-71
2023/07/18 00:05:17;;;;;;;3.40;2.40;;;21.00;84.20;;;;;;4912832;28;20475;-70
2023/07/18 00:07:44;;;;;;;2.20;2.00;;;21.00;84.80;;;;;;4912670;28;20590;-70
2023/07/18 00:10:11;;;;;;;2.60;2.40;;;20.80;84.50;;;;;;4916919;28;20479;-70
2023/07/18 00:12:37;;;;;;;2.77;2.40;;;20.80;85.10;;;;;;4928396;28;20558;-71
2023/07/18 00:15:09;;;;;;;2.63;2.43;;;20.70;85.20;;;;;;4914135;28;20475;-70
2023/07/18 00:17:36;;;;;;;2.83;1.93;;;20.60;85.10;;;;;;4913907;28;20467;-71
2023/07/18 00:20:09;;;;;;;3.87;2.27;;;20.50;85.50;;;;;;4911918;28;20479;-71
2023/07/18 00:22:35;;;;;;;3.70;2.30;;;20.50;86.00;;;;;;4912233;28;20558;-70
2023/07/18 00:25:01;;;;;;;2.47;2.17;;;20.40;85.70;;;;;;4928911;28;21158;-71
2023/07/18 00:27:28;;;;;;;2.77;2.20;;;20.40;85.90;;;;;;4928871;28;20479;-71
2023/07/18 00:29:55;;;;;;;3.53;2.50;;;20.40;85.90;;;;;;4927380;28;20253;-70
2023/07/18 00:32:22;;;;;;;3.13;2.50;;;20.40;85.90;;;;;;4929230;28;20475;-70
2023/07/18 00:34:49;;;;;;;2.77;2.30;;;20.30;85.70;;;;;;4928448;28;21038;-69
2023/07/18 00:37:15;;;;;;;3.10;2.27;;;20.10;86.30;;;;;;4929400;28;20590;-71
2023/07/18 00:39:42;;;;;;;3.20;2.20;;;20.00;86.50;;;;;;4928571;28;20471;-70
2023/07/18 00:42:08;;;;;;;3.33;3.03;;;20.10;86.50;;;;;;4927955;28;20484;-70
2023/07/18 00:44:33;;;;;;;4.50;2.70;;;20.10;86.70;;;;;;4912406;28;20254;-70
2023/07/18 00:47:00;;;;;;;3.87;2.20;;;20.10;86.10;;;;;;4929343;28;20468;-70
2023/07/18 00:49:26;;;;;;;7.10;2.33;;;19.90;87.00;;;;;;4928642;28;20907;-71
2023/07/18 00:51:52;;;;;;;2.73;2.40;;;19.90;87.20;;;;;;4928076;28;20478;-70
2023/07/18 00:54:20;;;;;;;3.90;2.80;;;19.90;87.40;;;;;;4897212;28;20860;-70
2023/07/18 00:56:47;;;;;;;2.20;1.83;;;20.00;87.10;;;;;;4913258;28;20234;-70
2023/07/18 00:59:15;;;;;;;5.20;2.53;;;19.90;86.90;;;;;;4927986;28;20507;-70
2023/07/18 01:01:41;;;;;;;2.90;2.10;;;19.90;87.60;;;;;;4928148;28;20554;-70
2023/07/18 01:04:08;;;;;;;4.77;3.60;;;19.90;87.50;;;;;;4927819;28;20471;-70
2023/07/18 01:06:36;;;;;;;4.60;2.43;;;19.90;87.30;;;;;;4928855;28;20228;-72
2023/07/18 01:09:02;;;;;;;2.87;2.07;;;19.90;87.40;;;;;;4912676;28;20486;-71
2023/07/18 01:11:29;;;;;;;5.43;2.50;;;19.80;87.30;;;;;;4912830;28;20485;-71
2023/07/18 01:13:54;;;;;;;3.07;2.10;;;19.80;87.40;;;;;;4912878;28;20844;-70
2023/07/18 01:16:20;;;;;;;4.33;2.60;;;19.70;87.70;;;;;;4913676;28;20223;-70
2023/07/18 01:18:46;;;;;;;3.30;2.50;;;19.60;87.50;;;;;;4911872;28;20223;-69
2023/07/18 01:21:17;;;;;;;2.60;2.23;;;19.50;88.80;;;;;;4913743;28;20804;-70
2023/07/18 01:23:45;;;;;;;2.37;2.17;;;19.60;88.30;;;;;;4927318;28;20293;-70
2023/07/18 01:26:13;;;;;;;3.23;2.40;;;19.60;88.20;;;;;;4928405;28;20494;-70
2023/07/18 01:28:39;;;;;;;6.10;2.27;;;19.50;87.80;;;;;;4912126;28;20471;-71
2023/07/18 01:31:05;;;;;;;2.90;2.70;;;19.50;88.10;;;;;;4892951;28;20480;-70
2023/07/18 01:33:32;;;;;;;2.50;2.30;;;19.40;87.90;;;;;;4915487;28;20228;-70
2023/07/18 01:36:00;;;;;;;3.37;2.33;;;19.30;88.50;;;;;;4928401;28;20227;-70
2023/07/18 01:38:32;;;;;;;2.97;2.30;;;19.20;88.60;;;;;;4913492;28;20511;-70
2023/07/18 01:41:00;;;;;;;2.40;2.20;;;19.20;89.00;;;;;;4911972;28;21092;-71
2023/07/18 01:43:26;;;;;;;3.17;2.80;;;19.20;88.90;;;;;;4897709;28;20850;-70
2023/07/18 01:45:57;;;;;;;3.63;2.07;;;19.30;89.20;;;;;;4912435;28;20559;-70
2023/07/18 01:48:22;;;;;;;2.60;1.90;;;19.30;89.00;;;;;;4928788;28;20314;-70
2023/07/18 01:50:48;;;;;;;2.83;2.03;;;19.20;89.50;;;;;;4896111;28;20949;-70
2023/07/18 01:53:14;;;;;;;2.50;2.30;;;19.00;89.40;;;;;;4928229;28;20232;-70
2023/07/18 01:55:40;;;;;;;3.40;1.90;;;18.90;89.50;;;;;;4932844;28;20267;-69
2023/07/18 01:58:06;;;;;;;3.00;2.80;;;19.00;89.70;;;;;;4930900;28;20231;-69
2023/07/18 02:00:32;;;;;;;2.70;2.50;;;19.00;89.90;;;;;;4915192;28;20471;-71
2023/07/18 02:02:58;;;;;;;3.03;2.13;;;19.10;89.80;;;;;;4916764;28;20259;-71
2023/07/18 02:05:25;;;;;;;2.47;2.17;;;19.00;89.40;;;;;;4915785;28;20460;-70
2023/07/18 02:07:52;;;;;;;2.00;1.83;;;19.00;89.50;;;;;;4915743;28;20500;-69
2023/07/18 02:10:20;;;;;;;5.07;3.97;;;18.70;89.90;;;;;;4930692;28;21073;-70
2023/07/18 02:12:50;;;;;;;3.30;2.27;;;18.70;90.40;;;;;;4915151;28;20515;-69
2023/07/18 02:15:16;;;;;;;4.13;2.30;;;18.70;90.30;;;;;;4899671;28;21000;-71
2023/07/18 02:17:42;;;;;;;2.37;2.07;;;18.70;90.20;;;;;;4931711;28;20476;-70
2023/07/18 02:20:11;;;;;;;3.40;2.10;;;18.70;90.30;;;;;;4915211;28;20553;-70
2023/07/18 02:22:39;;;;;;;3.17;2.50;;;18.80;90.30;;;;;;4914722;28;20590;-69
2023/07/18 02:25:07;;;;;;;2.57;2.10;;;18.90;90.30;;;;;;4914228;28;20482;-69
2023/07/18 02:27:34;;;;;;;2.27;1.97;;;18.90;90.10;;;;;;4915867;28;20552;-70
2023/07/18 02:30:03;;;;;;;4.07;2.10;;;18.80;90.10;;;;;;4932039;28;20482;-70
2023/07/18 02:32:32;;;;;;;2.37;2.17;;;18.60;90.30;;;;;;4905739;28;20472;-71
2023/07/18 02:34:57;;;;;;;4.70;2.40;;;18.70;90.50;;;;;;4930526;28;21072;-69
2023/07/18 02:37:24;;;;;;;4.30;3.00;;;18.80;90.40;;;;;;4932320;28;20479;-69
2023/07/18 02:39:50;;;;;;;2.60;2.40;;;18.80;90.40;;;;;;4929812;28;20410;-70
2023/07/18 02:42:17;;;;;;;3.67;2.07;;;18.80;90.30;;;;;;4930943;28;20455;-70
2023/07/18 02:44:43;;;;;;;2.70;2.43;;;18.80;90.40;;;;;;4931891;28;20468;-70
2023/07/18 02:47:09;;;;;;;4.30;2.70;;;18.80;90.50;;;;;;4931267;28;21080;-70
2023/07/18 02:49:35;;;;;;;3.00;2.73;;;18.70;90.50;;;;;;4930617;28;20495;-70
2023/07/18 02:52:01;;;;;;;2.60;2.33;;;18.70;90.60;;;;;;4931010;28;20354;-70
2023/07/18 02:54:26;;;;;;;4.53;2.27;;;18.70;90.60;;;;;;4931854;28;20227;-70
2023/07/18 02:56:52;;;;;;;3.37;2.20;;;18.60;90.60;;;;;;4930833;28;20482;-71
2023/07/18 02:59:21;;;;;;;2.83;2.63;;;18.60;90.60;;;;;;4914802;28;20378;-71
2023/07/18 03:01:54;;;;;;;3.03;2.27;;;18.60;90.70;;;;;;4927297;28;20614;-69
2023/07/18 03:04:20;;;;;;;3.57;2.30;;;18.60;90.80;;;;;;4910959;28;20522;-70
2023/07/18 03:06:53;;;;;;;5.73;2.50;;;18.60;90.80;;;;;;4915699;28;20487;-70
2023/07/18 03:09:21;;;;;;;6.20;1.90;;;18.60;90.90;;;;;;4930048;28;21267;-70
2023/07/18 03:11:47;;;;;;;4.40;2.33;;;18.50;90.90;;;;;;4930463;28;20484;-69
2023/07/18 03:14:14;;;;;;;2.97;2.20;;;18.40;90.80;;;;;;4920069;28;20581;-71
2023/07/18 03:16:40;;;;;;;2.80;2.60;;;18.50;91.00;;;;;;4931057;28;20479;-69
2023/07/18 03:19:08;;;;;;;8.10;3.00;;;18.50;90.80;;;;;;4913048;28;20557;-70
2023/07/18 03:21:34;;;;;;;2.50;2.30;;;18.50;90.70;;;;;;4915136;28;20474;-71
2023/07/18 03:24:00;;;;;;;3.20;2.53;;;18.50;90.90;;;;;;4929748;28;20479;-69
2023/07/18 03:26:26;;;;;;;3.73;2.60;;;18.40;91.00;;;;;;4897513;28;20228;-70
2023/07/18 03:28:55;;;;;;;2.93;2.50;;;18.40;91.10;;;;;;4930620;28;20256;-70
2023/07/18 03:31:20;;;;;;;4.40;2.77;;;18.30;91.10;;;;;;4914248;28;20511;-70
2023/07/18 03:33:46;;;;;;;2.83;2.53;;;18.30;91.20;;;;;;4929926;28;20479;-70
2023/07/18 03:36:12;;;;;;;3.00;2.53;;;18.30;91.20;;;;;;4914052;28;20298;-70
2023/07/18 03:38:37;;;;;;;3.77;2.70;;;18.20;91.20;;;;;;4913626;28;20228;-70
2023/07/18 03:41:03;;;;;;;3.17;2.57;;;18.30;91.30;;;;;;4914645;28;20224;-70
2023/07/18 03:43:29;;;;;;;3.70;2.17;;;18.30;91.10;;;;;;4931359;28;20227;-70
2023/07/18 03:45:54;;;;;;;2.70;2.50;;;18.30;91.20;;;;;;4912471;28;20236;-67
2023/07/18 03:48:22;;;;;;;4.93;2.93;;;18.10;91.10;;;;;;4929913;28;20228;-69
2023/07/18 03:50:47;;;;;;;3.87;2.33;;;18.10;91.40;;;;;;4913929;28;20312;-70
2023/07/18 03:53:13;;;;;;;3.37;2.60;;;18.10;91.50;;;;;;4913165;28;20990;-70
2023/07/18 03:55:39;;;;;;;3.33;2.63;;;18.10;91.50;;;;;;4914380;28;20824;-70
2023/07/18 03:58:05;;;;;;;4.97;2.60;;;18.10;91.50;;;;;;4928305;28;20499;-71
2023/07/18 04:00:30;;;;;;;2.83;2.27;;;18.10;91.60;;;;;;4915269;28;20242;-71
2023/07/18 04:02:57;;;;;;;3.27;2.60;;;18.10;91.70;;;;;;4928090;28;20871;-70
2023/07/18 04:05:23;;;;;;;5.57;2.30;;;18.10;91.60;;;;;;4914076;28;20224;-71
2023/07/18 04:07:48;;;;;;;2.43;2.23;;;18.20;91.70;;;;;;4915496;28;20478;-70
2023/07/18 04:10:14;;;;;;;2.73;2.30;;;18.10;91.50;;;;;;4928834;28;20228;-70
2023/07/18 04:12:41;;;;;;;2.70;2.50;;;18.10;91.60;;;;;;4913827;28;20228;-70
2023/07/18 04:15:08;;;;;;;3.60;2.83;;;18.10;91.70;;;;;;4914902;28;20582;-69
2023/07/18 04:17:34;;;;;;;3.50;2.30;;;18.10;91.80;;;;;;4915635;28;20492;-70
2023/07/18 04:20:00;;;;;;;3.30;2.30;;;18.10;91.80;;;;;;4912561;28;20594;-70
2023/07/18 04:22:29;;;;;;;2.67;2.43;;;18.10;92.00;;;;;;4914471;28;20303;-70
2023/07/18 04:24:55;;;;;;;4.07;2.20;;;18.10;92.00;;;;;;4914178;28;20494;-70
2023/07/18 04:27:21;;;;;;;4.37;2.60;;;18.10;92.00;;;;;;4914706;28;20471;-70
2023/07/18 04:29:48;;;;;;;3.90;2.60;;;18.10;92.20;;;;;;4912223;28;20696;-70
2023/07/18 04:32:14;;;;;;;2.60;2.20;;;18.10;92.10;;;;;;4914102;28;20480;-70
2023/07/18 04:34:39;;;;;;;3.60;2.37;;;18.10;92.10;;;;;;4928427;28;21021;-70
2023/07/18 04:37:05;;;;;;;2.80;2.23;;;18.10;92.30;;;;;;4913711;28;20226;-69
2023/07/18 04:39:31;;;;;;;3.00;2.07;;;18.00;92.40;;;;;;4913042;28;20703;-70
2023/07/18 04:41:57;;;;;;;3.77;2.80;;;18.10;92.40;;;;;;4911613;28;20263;-70
2023/07/18 04:44:23;;;;;;;2.60;2.27;;;18.10;92.50;;;;;;4929700;28;20220;-70
2023/07/18 04:46:49;;;;;;;3.03;2.10;;;18.10;92.40;;;;;;4902184;28;20238;-71
2023/07/18 04:49:15;;;;;;;2.80;2.50;;;18.10;92.40;;;;;;4926150;28;20468;-70
2023/07/18 04:51:41;;;;;;;4.40;2.50;;;18.10;92.40;;;;;;4926442;28;20525;-69
2023/07/18 04:54:07;;;;;;;3.97;2.33;;;18.10;92.50;;;;;;4914320;28;20576;-71
2023/07/18 04:56:32;;;;;;;4.27;2.50;;;18.10;92.70;;;;;;4925158;28;20231;-70
2023/07/18 04:58:59;;;;;;;5.77;3.10;;;18.20;92.60;;;;;;4909016;28;20321;-70
2023/07/18 05:01:24;;;;;;;2.70;2.30;;;18.20;92.40;;;;;;4923485;28;20258;-69
2023/07/18 05:03:50;;;;;;;4.80;2.37;;;18.20;92.50;;;;;;4907642;28;21260;-72
2023/07/18 05:06:16;;;;;;;8.90;2.43;;;18.30;92.90;;;;;;4907647;28;20248;-71
2023/07/18 05:08:41;;;;;;;2.50;2.30;;;18.30;92.80;;;;;;4908152;28;20342;-72
2023/07/18 05:11:07;;;;;;;3.23;2.27;;;18.30;92.90;;;;;;4921541;28;20827;-71
2023/07/18 05:13:33;;;;;;;2.83;2.50;;;18.30;92.70;;;;;;4909633;28;20228;-71
2023/07/18 05:16:01;;;;;;;4.10;3.30;;;18.40;92.90;;;;;;4908706;28;20258;-71
2023/07/18 05:18:27;;;;;;;3.27;2.60;;;18.40;92.90;;;;;;4911059;28;20230;-71
2023/07/18 05:20:56;;;;;;;2.60;2.40;;;18.40;93.20;;;;;;4907009;28;20471;-70
2023/07/18 05:23:21;;;;;;;6.23;2.73;;;18.40;93.20;;;;;;4923796;28;20339;-68
2023/07/18 05:25:47;;;;;;;4.07;2.30;;;18.50;93.20;;;;;;4923921;28;20479;-69
2023/07/18 05:28:13;;;;;;;3.67;2.30;;;18.50;93.30;;;;;;4908870;28;20228;-70
2023/07/18 05:30:39;;;;;;;2.93;2.03;;;18.50;93.30;;;;;;4906762;28;20494;-68
2023/07/18 05:33:04;;;;;;;4.03;2.70;;;18.60;93.30;;;;;;4899722;28;20220;-70
2023/07/18 05:35:30;;;;;;;5.37;2.73;;;18.60;93.50;;;;;;4900191;28;20230;-69
2023/07/18 05:37:56;;;;;;;3.97;2.77;;;18.60;93.40;;;;;;4901981;28;20243;-70
2023/07/18 05:40:22;;;;;;;2.53;2.30;;;18.60;93.70;;;;;;4899380;28;20232;-70
2023/07/18 05:42:47;;;;;;;4.07;2.37;;;18.60;93.90;;;;;;4893054;28;20236;-70
2023/07/18 05:45:14;;;;;;;2.00;1.80;;;18.70;93.90;;;;;;4899876;28;20235;-70
2023/07/18 05:47:40;;;;;;;4.13;2.40;;;18.70;94.00;;;;;;4887953;28;20227;-71
2023/07/18 05:50:06;;;;;;;9.77;2.30;;;18.80;94.30;;;;;;4881898;28;20484;-70
2023/07/18 05:52:32;;;;;;;3.80;2.50;;;18.80;94.00;;;;;;4868628;28;20298;-70
2023/07/18 05:54:58;;;;;;;2.70;2.17;;;18.80;94.10;;;;;;4901265;28;20467;-72
2023/07/18 05:57:27;;;;;;;3.60;2.50;;;18.90;94.60;;;;;;4887331;28;20949;-70
2023/07/18 05:59:52;;;;;;;3.90;2.67;;;18.90;95.20;;;;;;4899686;28;20817;-71
2023/07/18 06:02:20;;;;;;;3.40;2.43;;;18.90;94.60;;;;;;4885268;28;20456;-71
2023/07/18 06:04:46;;;;;;;4.13;2.10;;;19.00;95.50;;;;;;4889408;28;20220;-72
2023/07/18 06:07:12;;;;;;;6.73;2.73;;;19.00;95.10;;;;;;4901195;28;20600;-70
2023/07/18 06:09:37;;;;;;;3.27;2.80;;;19.00;95.10;;;;;;4898502;28;20593;-70
2023/07/18 06:12:06;;;;;;;3.77;2.77;;;19.10;95.40;;;;;;4901520;28;20240;-71
2023/07/18 06:14:33;;;;;;;3.77;2.50;;;19.10;96.10;;;;;;4901433;28;20855;-70
2023/07/18 06:16:59;;;;;;;4.33;2.43;;;19.20;96.10;;;;;;4897926;28;20472;-70
2023/07/18 06:19:25;;;;;;;5.27;3.00;;;19.20;96.40;;;;;;4922511;28;20478;-70
2023/07/18 06:21:51;;;;;;;2.73;2.40;;;19.30;96.00;;;;;;4908283;28;20232;-70
2023/07/18 06:24:16;;;;;;;2.23;2.03;;;19.40;96.70;;;;;;4901007;28;20317;-70
2023/07/18 06:26:48;;;;;;;4.33;2.53;;;19.50;97.00;;;;;;4885717;28;20223;-70
2023/07/18 06:29:18;;;;;;;2.80;2.27;;;19.50;96.30;;;;;;4887988;28;20228;-70
2023/07/18 06:31:45;;;;;;;5.13;2.60;;;19.60;97.10;;;;;;4886483;28;20521;-70
2023/07/18 06:34:11;;;;;;;3.20;2.57;;;19.70;97.20;;;;;;4901993;28;20576;-69
2023/07/18 06:36:36;;;;;;;4.43;2.87;;;19.80;97.30;;;;;;4900766;28;20510;-70
2023/07/18 06:39:04;;;;;;;3.60;2.20;;;19.80;97.20;;;;;;4903890;28;21214;-70
2023/07/18 06:41:29;;;;;;;5.20;3.10;;;19.80;96.90;;;;;;4886645;28;20238;-70
2023/07/18 06:43:56;;;;;;;4.23;2.63;;;19.90;96.80;;;;;;4884883;28;20503;-70
2023/07/18 06:46:22;;;;;;;3.17;2.50;;;20.00;96.80;;;;;;4887636;28;20504;-71
2023/07/18 06:48:48;;;;;;;5.40;2.57;;;20.20;96.90;;;;;;4870794;28;20227;-70
2023/07/18 06:51:14;;;;;;;2.53;2.20;;;20.20;96.60;;;;;;4899470;28;20231;-71
2023/07/18 06:53:40;;;;;;;4.00;3.00;;;20.30;96.70;;;;;;4887610;28;20702;-69
2023/07/18 06:56:06;;;;;;;2.10;2.00;;;20.40;96.40;;;;;;4904535;28;20527;-71
2023/07/18 06:58:31;;;;;;;5.00;2.40;;;20.40;96.20;;;;;;4902264;28;20357;-69
2023/07/18 07:00:57;;;;;;;2.77;2.17;;;20.30;96.10;;;;;;4885103;28;20617;-70
2023/07/18 07:03:23;;;;;;;3.20;2.30;;;20.30;96.20;;;;;;4903670;28;20852;-71
2023/07/18 07:05:48;;;;;;;3.80;3.47;;;20.40;96.40;;;;;;4903373;28;20234;-69
2023/07/18 07:08:18;;;;;;;3.30;2.43;;;20.50;96.60;;;;;;4884280;28;20234;-70
2023/07/18 07:10:44;;;;;;;2.60;2.03;;;20.60;96.80;;;;;;4886744;28;20363;-70
2023/07/18 07:13:11;;;;;;;5.07;2.60;;;20.70;96.50;;;;;;4888113;28;20602;-70
2023/07/18 07:15:38;;;;;;;2.43;2.23;;;20.70;96.20;;;;;;4885697;28;20567;-71
2023/07/18 07:18:04;;;;;;;3.30;2.50;;;20.80;96.20;;;;;;4899548;28;20483;-70
2023/07/18 07:20:31;;;;;;;4.90;2.67;;;20.90;96.30;;;;;;4888154;28;21207;-70
2023/07/18 07:22:57;;;;;;;4.20;2.83;;;21.00;96.20;;;;;;4901204;28;20479;-70
2023/07/18 07:25:27;;;;;;;2.40;2.20;;;21.00;96.30;;;;;;4887052;28;20518;-70
2023/07/18 07:27:53;;;;;;;2.13;1.87;;;21.00;96.10;;;;;;4884192;28;20605;-69
2023/07/18 07:30:19;;;;;;;4.10;2.23;;;21.00;96.40;;;;;;4887420;28;20463;-70
2023/07/18 07:32:47;;;;;;;3.07;2.43;;;21.10;96.10;;;;;;4885018;28;20471;-70
2023/07/18 07:35:14;;;;;;;4.13;2.50;;;21.20;95.60;;;;;;4884887;28;20353;-71
2023/07/18 07:37:40;;;;;;;3.13;2.53;;;21.30;95.60;;;;;;4887232;28;20474;-71
2023/07/18 07:40:11;;;;;;;3.37;2.87;;;21.50;96.30;;;;;;4884003;28;20482;-69
2023/07/18 07:42:38;;;;;;;4.10;2.73;;;21.80;95.70;;;;;;4900901;28;20483;-70
2023/07/18 07:45:04;;;;;;;2.77;2.30;;;22.00;95.50;;;;;;4883166;28;20506;-71
2023/07/18 07:47:30;;;;;;;3.57;3.00;;;22.10;95.70;;;;;;4889227;28;20467;-70
2023/07/18 07:49:56;;;;;;;3.03;2.70;;;22.30;94.70;;;;;;4900387;28;20538;-70
2023/07/18 07:52:21;;;;;;;3.53;2.13;;;22.30;93.90;;;;;;4898255;28;20302;-70
2023/07/18 07:54:48;;;;;;;2.57;2.27;;;22.20;93.50;;;;;;4885238;28;20270;-69
2023/07/18 07:57:14;;;;;;;3.10;2.50;;;22.40;93.30;;;;;;4885227;28;20231;-70
2023/07/18 07:59:40;;;;;;;2.73;2.00;;;22.50;92.90;;;;;;4884577;28;20482;-71
2023/07/18 08:02:06;;;;;;;2.83;2.17;;;22.70;93.10;;;;;;4896841;28;20522;-70
2023/07/18 08:04:32;;;;;;;2.93;2.30;;;22.80;92.70;;;;;;4903910;28;20483;-71
2023/07/18 08:06:58;;;;;;;2.23;2.00;;;22.80;91.80;;;;;;4898491;28;20231;-70
2023/07/18 08:09:23;;;;;;;4.37;2.80;;;22.70;90.90;;;;;;4882515;28;20261;-70
2023/07/18 08:11:49;;;;;;;1.83;1.70;;;22.90;91.20;;;;;;4883057;28;20234;-70
2023/07/18 08:14:15;;;;;;;5.57;2.80;;;22.90;90.90;;;;;;4886017;28;20971;-70
2023/07/18 08:16:43;;;;;;;2.33;1.87;;;22.90;91.40;;;;;;4867058;28;20274;-70
2023/07/18 08:19:09;;;;;;;3.47;2.73;;;23.00;91.50;;;;;;4897655;28;20231;-70
2023/07/18 08:21:35;;;;;;;2.23;2.03;;;23.20;91.60;;;;;;4886160;28;20875;-69
2023/07/18 08:24:02;;;;;;;3.10;2.13;;;23.30;91.60;;;;;;4882471;28;20230;-71
2023/07/18 08:26:27;;;;;;;2.37;2.17;;;23.30;91.30;;;;;;4885064;28;20237;-70
2023/07/18 08:28:53;;;;;;;2.93;2.00;;;23.30;90.90;;;;;;4882804;28;21129;-69
2023/07/18 08:31:19;;;;;;;3.17;2.30;;;23.30;90.40;;;;;;4900802;28;20231;-70
2023/07/18 08:33:45;;;;;;;3.50;2.20;;;23.60;90.60;;;;;;4898136;28;20227;-71
2023/07/18 08:36:10;;;;;;;4.97;2.30;;;23.80;90.00;;;;;;4881785;28;20339;-72
2023/07/18 08:38:37;;;;;;;3.30;1.90;;;23.80;90.00;;;;;;4887508;28;20483;-70
2023/07/18 08:41:03;;;;;;;2.30;1.70;;;23.80;90.20;;;;;;4881374;28;20308;-71
2023/07/18 08:43:30;;;;;;;4.53;2.93;;;23.70;89.70;;;;;;4882092;28;20467;-71
2023/07/18 08:45:57;;;;;;;2.53;2.27;;;23.70;90.40;;;;;;4897633;28;20828;-71
2023/07/18 08:48:23;;;;;;;3.10;2.43;;;23.80;90.40;;;;;;4885725;28;20471;-70
2023/07/18 08:50:51;;;;;;;5.93;2.20;;;23.90;90.20;;;;;;4880975;28;20482;-70
2023/07/18 08:53:16;;;;;;;3.20;2.10;;;24.10;89.80;;;;;;4865513;28;20986;-71
2023/07/18 08:55:43;;;;;;;3.30;2.07;;;24.30;90.00;;;;;;4887307;28;20502;-72
2023/07/18 08:58:09;;;;;;;3.80;2.50;;;24.50;90.30;;;;;;4880367;28;20845;-70
2023/07/18 09:00:35;;;;;;;3.67;2.20;;;24.70;90.20;;;;;;4881768;28;20518;-71
2023/07/18 09:03:01;;;;;;;4.60;2.30;;;24.60;89.40;;;;;;4897856;28;20478;-70
2023/07/18 09:05:35;;;;;;;3.50;2.13;;;24.50;89.90;;;;;;4907438;28;20341;-71
2023/07/18 09:08:04;;;;;;;3.87;2.50;;;24.80;89.60;;;;;;4900643;28;20979;-71
2023/07/18 09:10:30;;;;;;;2.47;2.27;;;24.70;89.10;;;;;;4901314;28;20569;-71
2023/07/18 09:13:07;;;;;;;2.50;2.30;;;24.80;88.30;;;;;;4889474;28;20474;-71
2023/07/18 09:15:35;;;;;;;2.40;2.20;;;24.80;88.70;;;;;;4904247;28;20512;-70
2023/07/18 09:18:06;;;;;;;2.50;1.93;;;25.10;86.80;;;;;;4902406;28;20992;-71
2023/07/18 09:20:32;;;;;;;2.70;2.40;;;25.20;87.60;;;;;;4889401;28;20674;-70
2023/07/18 09:23:03;;;;;;;2.57;2.27;;;25.40;87.20;;;;;;4890662;28;20474;-72
2023/07/18 09:25:29;;;;;;;2.03;1.77;;;25.30;86.20;;;;;;4902410;28;21128;-72
2023/07/18 09:27:57;;;;;;;2.20;2.10;;;25.40;85.00;;;;;;4888135;28;20479;-72
2023/07/18 09:30:43;;;;;;;2.53;2.30;;;25.40;85.50;;;;;;4873379;28;20462;-70
2023/07/18 09:33:09;;;;;;;3.03;2.10;;;25.20;84.90;;;;;;4895987;28;20621;-70
2023/07/18 09:35:39;;;;;;;2.70;1.83;;;25.30;85.70;;;;;;4887637;28;21222;-71
2023/07/18 09:38:07;;;;;;;3.37;2.00;;;25.70;83.90;;;;;;4905082;28;20829;-70
2023/07/18 09:40:34;;;;;;;2.27;1.90;;;26.00;82.70;;;;;;4872522;28;20502;-70
2023/07/18 09:43:01;;;;;;;2.63;2.17;;;26.00;82.00;;;;;;4885573;28;20489;-71
2023/07/18 09:45:28;;;;;;;2.27;2.07;;;26.00;80.00;;;;;;4901475;28;20478;-71
2023/07/18 09:47:54;;;;;;;3.00;2.70;;;26.10;81.70;;;;;;4902501;28;20487;-71
2023/07/18 09:50:20;;;;;;;2.97;2.23;;;26.20;81.40;;;;;;4883257;28;20482;-71
2023/07/18 09:52:49;;;;;;;3.77;2.47;;;26.20;80.60;;;;;;4886964;28;20386;-71
2023/07/18 09:55:21;;;;;;;2.97;2.40;;;26.20;80.00;;;;;;4886710;28;20405;-71
2023/07/18 09:57:49;;;;;;;3.67;2.23;;;26.20;80.70;;;;;;4887258;28;20467;-71
2023/07/18 10:00:16;;;;;;;2.27;2.07;;;26.30;81.00;;;;;;4884876;28;20473;-71
2023/07/18 10:02:43;;;;;;;3.03;2.33;;;26.40;80.60;;;;;;4885701;28;20471;-71
2023/07/18 10:05:10;;;;;;;2.83;2.20;;;26.50;79.80;;;;;;4871420;28;21328;-71
2023/07/18 10:07:39;;;;;;;2.70;2.50;;;26.70;79.50;;;;;;4886414;28;20479;-72
2023/07/18 10:10:10;;;;;;;3.37;2.73;;;27.00;78.80;;;;;;4884343;28;21324;-71
2023/07/18 10:12:37;;;;;;;2.63;2.27;;;27.10;75.50;;;;;;4901108;28;20501;-70
2023/07/18 10:15:03;;;;;;;3.53;2.13;;;27.10;76.20;;;;;;4902253;28;20580;-71
2023/07/18 10:17:41;;;;;;;2.57;2.37;;;27.30;76.10;;;;;;4885482;28;20275;-72
2023/07/18 10:20:22;;;;;;;2.13;2.03;;;27.10;75.10;;;;;;4897564;28;20489;-71
2023/07/18 10:22:52;;;;;;;2.83;2.57;;;26.90;76.30;;;;;;4887959;28;20484;-71
2023/07/18 10:25:18;;;;;;;2.50;2.30;;;27.00;76.80;;;;;;4899790;28;21000;-70
2023/07/18 10:27:46;;;;;;;2.13;1.93;;;27.00;76.40;;;;;;4898885;28;20478;-72
2023/07/18 10:30:17;;;;;;;2.87;2.63;;;27.00;75.00;;;;;;4883149;28;21232;-71
2023/07/18 10:32:57;;;;;;;3.37;2.67;;;27.00;75.00;;;;;;4903267;28;20490;-71
2023/07/18 10:35:27;;;;;;;2.80;2.10;;;27.00;74.80;;;;;;4884001;28;20839;-72
2023/07/18 10:37:58;;;;;;;2.60;2.40;;;27.10;75.00;;;;;;4884086;28;21200;-71
2023/07/18 10:40:36;;;;;;;4.17;3.17;;;27.00;74.00;;;;;;4886057;28;20474;-72
2023/07/18 10:43:09;;;;;;;2.33;2.13;;;26.80;74.50;;;;;;4883246;28;20489;-71
2023/07/18 10:45:40;;;;;;;3.17;2.67;;;26.80;74.10;;;;;;4885609;28;20458;-72
2023/07/18 10:48:17;;;;;;;3.07;2.40;;;26.90;72.70;;;;;;4887041;28;21335;-71
2023/07/18 10:50:44;;;;;;;3.33;2.43;;;27.00;73.20;;;;;;4883110;28;20578;-71
2023/07/18 10:53:14;;;;;;;3.60;2.43;;;26.70;72.20;;;;;;4882245;28;20910;-70
2023/07/18 10:55:40;;;;;;;2.67;2.47;;;26.70;73.00;;;;;;4885123;28;20230;-71
2023/07/18 10:58:11;;;;;;;2.57;2.20;;;27.00;72.70;;;;;;4901568;28;20338;-71
2023/07/18 11:00:39;;;;;;;2.40;2.20;;;27.30;70.70;;;;;;4899641;28;20258;-72
2023/07/18 11:03:04;;;;;;;2.40;2.10;;;27.70;70.10;;;;;;4881656;28;20879;-71
2023/07/18 11:05:30;;;;;;;4.50;2.40;;;27.80;70.00;;;;;;4904734;28;20475;-71
2023/07/18 11:07:56;;;;;;;2.20;2.00;;;27.80;70.20;;;;;;4900555;28;20235;-72
2023/07/18 11:10:21;;;;;;;2.30;2.10;;;27.90;70.00;;;;;;4899532;28;20231;-72
2023/07/18 11:12:47;;;;;;;2.80;2.07;;;27.60;68.70;;;;;;4884801;28;20227;-71
2023/07/18 11:15:13;;;;;;;3.30;2.13;;;27.10;69.40;;;;;;4902263;28;20269;-71
2023/07/18 11:17:38;;;;;;;2.90;2.63;;;27.20;69.70;;;;;;4885578;28;20347;-71
2023/07/18 11:20:06;;;;;;;4.38;2.28;;;27.30;70.00;;;;;;4897213;28;20238;-71
2023/07/18 11:22:32;;;;;;;3.03;2.60;;;27.60;68.90;;;;;;4868018;28;20219;-71
2023/07/18 11:24:58;;;;;;;2.17;2.08;;;27.80;69.00;;;;;;4885948;28;20412;-71
2023/07/18 11:27:26;;;;;;;3.67;2.60;;;27.90;68.80;;;;;;4899029;28;20274;-71
2023/07/18 11:30:03;;;;;;;3.55;1.98;;;28.00;67.90;;;;;;4892492;28;20235;-72
2023/07/18 11:32:43;;;;;;;3.10;2.50;;;28.20;67.10;;;;;;4886314;28;20241;-72
2023/07/18 11:35:22;;;;;;;3.88;2.65;;;28.40;67.20;;;;;;4896885;28;20777;-71
2023/07/18 11:37:52;;;;;;;3.13;2.28;;;28.60;66.10;;;;;;4885114;28;20234;-70
2023/07/18 11:40:25;;;;;;;2.58;2.38;;;28.70;66.10;;;;;;4866106;28;20230;-71
2023/07/18 11:42:58;;;;;;;5.22;2.60;;;28.70;65.60;;;;;;4903978;28;20238;-72
2023/07/18 11:45:26;;;;;;;2.47;2.08;;;28.60;66.00;;;;;;4910681;28;20784;-71
2023/07/18 11:47:53;;;;;;;2.95;1.85;;;28.50;65.00;;;;;;4910533;28;20219;-72
2023/07/18 11:50:20;;;;;;;2.40;2.20;;;28.50;65.70;;;;;;4905865;28;20242;-71
2023/07/18 11:52:52;;;;;;;2.85;2.60;;;28.40;66.00;;;;;;4906772;28;20223;-72
2023/07/18 11:55:20;;;;;;;3.72;1.95;;;28.40;66.90;;;;;;4884575;28;20223;-72
2023/07/18 11:57:46;;;;;;;4.03;2.03;;;28.50;67.50;;;;;;4887148;28;20313;-71
2023/07/18 12:00:12;;;;;;;3.80;2.55;;;28.80;66.20;;;;;;4886042;28;20234;-72
2023/07/18 12:02:38;;;;;;;2.45;2.25;;;28.90;66.30;;;;;;4900051;28;20923;-71
2023/07/18 12:05:05;;;;;;;3.05;2.55;;;29.00;65.20;;;;;;4899425;28;20220;-71
2023/07/18 12:07:35;;;;;;;2.45;2.25;;;29.00;64.90;;;;;;4905979;28;20238;-72
2023/07/18 12:10:01;;;;;;;3.70;2.30;;;28.80;65.20;;;;;;4899978;28;20926;-70
2023/07/18 12:12:27;;;;;;;2.50;2.30;;;28.90;64.60;;;;;;4884259;28;20328;-72
2023/07/18 12:14:53;;;;;;;2.47;2.22;;;28.80;64.40;;;;;;4886605;28;20729;-72
2023/07/18 12:17:19;;;;;;;2.55;2.35;;;29.00;64.40;;;;;;4886501;28;20933;-71
2023/07/18 12:19:45;;;;;;;2.75;2.55;;;29.40;64.80;;;;;;4884076;28;20237;-72
2023/07/18 12:22:11;;;;;;;2.25;2.05;;;29.60;62.50;;;;;;4882144;28;20260;-71
2023/07/18 12:24:37;;;;;;;2.88;2.63;;;29.30;61.60;;;;;;4904922;28;20223;-72
2023/07/18 12:27:04;;;;;;;3.13;1.95;;;29.40;62.00;;;;;;4885055;28;20230;-73
2023/07/18 12:29:30;;;;;;;3.35;2.28;;;29.60;62.70;;;;;;4884952;28;20238;-71
2023/07/18 12:31:56;;;;;;;2.92;2.65;;;29.80;62.60;;;;;;4884791;28;21022;-72
2023/07/18 12:34:22;;;;;;;3.25;2.38;;;29.90;62.20;;;;;;4887839;28;20827;-73
2023/07/18 12:36:48;;;;;;;2.88;2.67;;;30.00;63.20;;;;;;4882241;28;20228;-71
2023/07/18 12:39:15;;;;;;;3.00;1.98;;;30.10;62.80;;;;;;4881420;28;20242;-71
2023/07/18 12:41:42;;;;;;;5.78;2.42;;;29.30;61.30;;;;;;4887386;28;20836;-71
2023/07/18 12:44:08;;;;;;;1.95;1.80;;;29.20;63.80;;;;;;4898808;28;20231;-71
2023/07/18 12:46:35;;;;;;;3.90;2.17;;;29.60;62.40;;;;;;4882783;28;20223;-73